Time,TemperatureF,DewpointF,PressureIn,WindDirection,WindDirectionDegrees,WindSpeedMPH,WindSpeedGustMPH,Humidity,HourlyPrecipIn,Conditions,Clouds,dailyrainin,SoftwareType,DateUTC
2013-03-20 00:05:00,25.7,24.5,29.64,NNW,337,2.7,-999.0,95,-99.99,,,0.00,Acu-Link.com,2013-03-20 04:05:00,
2013-03-20 00:20:00,25.7,24.5,29.64,NE,45,1.7,-999.0,95,-99.99,,,0.00,Acu-Link.com,2013-03-20 04:20:00,
2013-03-20 00:36:00,25.3,23.8,29.64,NW,315,2.2,-999.0,94,-99.99,,,0.00,Acu-Link.com,2013-03-20 04:36:00,
2013-03-20 00:51:00,25.2,23.7,29.65,NNW,337,2.2,-999.0,94,-99.99,,,0.00,Acu-Link.com,2013-03-20 04:51:00,
2013-03-20 01:21:00,24.8,23.1,29.66,West,270,2.7,-999.0,93,-99.99,,,0.00,Acu-Link.com,2013-03-20 05:21:00,
2013-03-20 01:37:00,24.8,23.6,29.65,WNW,292,2.2,-999.0,95,-99.99,,,0.00,Acu-Link.com,2013-03-20 05:37:00,
2013-03-20 01:52:00,24.8,23.3,29.66,NNW,337,2.2,-999.0,94,-99.99,,,0.00,Acu-Link.com,2013-03-20 05:52:00,
2013-03-20 02:08:00,24.8,23.3,29.66,NNE,22,0.0,-999.0,94,-99.99,,,0.00,Acu-Link.com,2013-03-20 06:08:00,
2013-03-20 02:23:00,24.8,23.1,29.65,NNW,337,2.2,-999.0,93,-99.99,,,0.00,Acu-Link.com,2013-03-20 06:23:00,
2013-03-20 02:38:00,24.8,23.3,29.66,North,0,0.0,-999.0,94,-99.99,,,0.00,Acu-Link.com,2013-03-20 06:38:00,
2013-03-20 02:53:00,24.8,23.3,29.66,WSW,247,0.0,-999.0,94,-99.99,,,0.00,Acu-Link.com,2013-03-20 06:53:00,
2013-03-20 03:09:00,24.8,23.1,29.65,WNW,292,0.0,-999.0,93,-99.99,,,0.00,Acu-Link.com,2013-03-20 07:09:00,
2013-03-20 03:24:00,24.8,23.3,29.66,South,180,0.0,-999.0,94,-99.99,,,0.00,Acu-Link.com,2013-03-20 07:24:00,
2013-03-20 03:40:00,24.8,23.3,29.66,South,180,0.0,-999.0,94,-99.99,,,0.00,Acu-Link.com,2013-03-20 07:40:00,
2013-03-20 03:55:00,24.8,23.3,29.65,South,180,0.0,-999.0,94,-99.99,,,0.00,Acu-Link.com,2013-03-20 07:55:00,
2013-03-20 04:36:00,24.4,22.9,29.66,South,180,0.0,-999.0,94,-99.99,,,0.00,Acu-Link.com,2013-03-20 08:36:00,
2013-03-20 04:52:00,24.6,23.6,29.66,WNW,292,0.0,-999.0,96,-99.99,,,0.00,Acu-Link.com,2013-03-20 08:52:00,
2013-03-20 05:07:00,25.0,24.0,29.66,South,180,0.0,-999.0,96,-99.99,,,0.00,Acu-Link.com,2013-03-20 09:07:00,
2013-03-20 05:22:00,25.2,24.2,29.66,East,90,0.0,-999.0,96,-99.99,,,0.00,Acu-Link.com,2013-03-20 09:22:00,
2013-03-20 05:38:00,25.2,24.2,29.67,South,180,0.0,-999.0,96,-99.99,,,0.00,Acu-Link.com,2013-03-20 09:38:00,
2013-03-20 05:53:00,25.3,24.3,29.66,South,180,0.0,-999.0,96,-99.99,,,0.00,Acu-Link.com,2013-03-20 09:53:00,
2013-03-20 06:08:00,25.3,24.3,29.67,NNE,22,0.0,-999.0,96,-99.99,,,0.00,Acu-Link.com,2013-03-20 10:08:00,
2013-03-20 06:24:00,25.7,24.5,29.66,ESE,112,0.0,-999.0,95,-99.99,,,0.00,Acu-Link.com,2013-03-20 10:24:00,
2013-03-20 06:39:00,25.5,24.3,29.67,WNW,292,0.0,-999.0,95,-99.99,,,0.00,Acu-Link.com,2013-03-20 10:39:00,
2013-03-20 06:54:00,25.7,24.5,29.67,WNW,292,0.0,-999.0,95,-99.99,,,0.00,Acu-Link.com,2013-03-20 10:54:00,
2013-03-20 07:10:00,25.9,24.4,29.67,NNE,22,0.0,-999.0,94,-99.99,,,0.00,Acu-Link.com,2013-03-20 11:10:00,
2013-03-20 07:25:00,26.1,24.6,29.67,NNW,337,0.0,-999.0,94,-99.99,,,0.00,Acu-Link.com,2013-03-20 11:25:00,
2013-03-20 07:40:00,26.4,24.9,29.67,West,270,1.7,-999.0,94,-99.99,,,0.00,Acu-Link.com,2013-03-20 11:40:00,
2013-03-20 07:56:00,27.0,25.3,29.67,West,270,0.0,-999.0,93,-99.99,,,0.00,Acu-Link.com,2013-03-20 11:56:00,
2013-03-20 08:11:00,27.5,25.5,29.67,West,270,2.7,-999.0,92,-99.99,,,0.00,Acu-Link.com,2013-03-20 12:11:00,
2013-03-20 08:42:00,29.3,26.5,29.68,NW,315,2.2,-999.0,89,-99.99,,,0.00,Acu-Link.com,2013-03-20 12:42:00,
2013-03-20 08:57:00,33.4,27.9,29.67,SE,135,1.1,-999.0,80,-99.99,,,0.00,Acu-Link.com,2013-03-20 12:57:00,
2013-03-20 09:13:00,34.5,29.0,29.67,NNE,22,2.7,-999.0,80,-99.99,,,0.00,Acu-Link.com,2013-03-20 13:13:00,
2013-03-20 09:28:00,35.1,28.6,29.67,WNW,292,2.2,-999.0,77,-99.99,,,0.00,Acu-Link.com,2013-03-20 13:28:00,
2013-03-20 09:44:00,31.8,25.4,29.66,NW,315,1.7,-999.0,77,-99.99,,,0.00,Acu-Link.com,2013-03-20 13:44:00,
2013-03-20 09:59:00,32.0,25.6,29.66,SE,135,2.2,-999.0,77,-99.99,,,0.01,Acu-Link.com,2013-03-20 13:59:00,
2013-03-20 10:14:00,32.5,25.8,29.66,West,270,2.2,-999.0,76,-99.99,,,0.01,Acu-Link.com,2013-03-20 14:14:00,
2013-03-20 10:29:00,32.9,25.5,29.66,West,270,2.7,-999.0,74,-99.99,,,0.02,Acu-Link.com,2013-03-20 14:29:00,
2013-03-20 10:45:00,34.0,27.2,29.67,ENE,67,2.2,-999.0,76,-99.99,,,0.03,Acu-Link.com,2013-03-20 14:45:00,
2013-03-20 11:00:00,34.9,28.1,29.67,NE,45,3.2,-999.0,76,-99.99,,,0.04,Acu-Link.com,2013-03-20 15:00:00,
2013-03-20 11:15:00,33.6,24.9,29.67,ENE,67,3.7,-999.0,70,-99.99,,,0.05,Acu-Link.com,2013-03-20 15:15:00,
2013-03-20 11:30:00,34.3,25.2,29.67,WNW,292,2.7,-999.0,69,-99.99,,,0.07,Acu-Link.com,2013-03-20 15:30:00,
2013-03-20 11:45:00,34.7,25.6,29.67,WNW,292,4.7,-999.0,69,-99.99,,,0.08,Acu-Link.com,2013-03-20 15:45:00,
2013-03-20 12:16:00,34.0,25.6,29.67,NNE,22,1.7,-999.0,71,-99.99,,,0.10,Acu-Link.com,2013-03-20 16:16:00,
2013-03-20 12:31:00,35.2,26.4,29.67,West,270,1.1,-999.0,70,-99.99,,,0.11,Acu-Link.com,2013-03-20 16:31:00,
2013-03-20 12:47:00,33.8,24.7,29.67,NE,45,2.7,-999.0,69,-99.99,,,0.11,Acu-Link.com,2013-03-20 16:47:00,
2013-03-20 13:02:00,34.5,25.4,29.67,WNW,292,1.7,-999.0,69,-99.99,,,0.12,Acu-Link.com,2013-03-20 17:02:00,
2013-03-20 13:33:00,35.6,26.5,29.66,West,270,2.7,-999.0,69,-99.99,,,0.12,Acu-Link.com,2013-03-20 17:33:00,
2013-03-20 13:48:00,34.9,24.0,29.67,NE,45,6.3,-999.0,64,-99.99,,,0.13,Acu-Link.com,2013-03-20 17:48:00,
2013-03-20 14:04:00,36.5,24.7,29.66,East,90,4.7,-999.0,62,-99.99,,,0.14,Acu-Link.com,2013-03-20 18:04:00,
2013-03-20 14:19:00,35.6,23.1,29.66,SSE,157,4.7,-999.0,60,-99.99,,,0.15,Acu-Link.com,2013-03-20 18:19:00,
2013-03-20 14:34:00,36.7,23.7,29.66,West,270,4.2,-999.0,59,-99.99,,,0.15,Acu-Link.com,2013-03-20 18:34:00,
2013-03-20 14:50:00,37.0,23.6,29.66,West,270,2.2,-999.0,58,-99.99,,,0.17,Acu-Link.com,2013-03-20 18:50:00,
2013-03-20 15:05:00,37.8,23.1,29.65,WNW,292,3.7,-999.0,55,-99.99,,,0.18,Acu-Link.com,2013-03-20 19:05:00,
2013-03-20 15:20:00,37.2,22.1,29.65,SSE,157,3.7,-999.0,54,-99.99,,,0.19,Acu-Link.com,2013-03-20 19:20:00,
2013-03-20 15:35:00,37.2,23.0,29.65,NE,45,3.2,-999.0,56,-99.99,,,0.19,Acu-Link.com,2013-03-20 19:35:00,
2013-03-20 16:06:00,37.6,23.8,29.65,ENE,67,2.7,-999.0,57,-99.99,,,0.21,Acu-Link.com,2013-03-20 20:06:00,
2013-03-20 16:21:00,37.4,23.6,29.66,NE,45,3.2,-999.0,57,-99.99,,,0.22,Acu-Link.com,2013-03-20 20:21:00,
2013-03-20 16:37:00,38.1,23.4,29.66,ENE,67,6.3,-999.0,55,-99.99,,,0.23,Acu-Link.com,2013-03-20 20:37:00,
2013-03-20 16:52:00,38.8,23.6,29.66,NE,45,0.0,-999.0,54,-99.99,,,0.24,Acu-Link.com,2013-03-20 20:52:00,
2013-03-20 17:07:00,38.8,23.2,29.67,ENE,67,2.2,-999.0,53,-99.99,,,0.25,Acu-Link.com,2013-03-20 21:07:00,
2013-03-20 17:23:00,39.2,23.1,29.66,NW,315,5.8,-999.0,52,-99.99,,,0.26,Acu-Link.com,2013-03-20 21:23:00,
2013-03-20 17:38:00,37.0,21.9,29.67,ESE,112,1.7,-999.0,54,-99.99,,,0.26,Acu-Link.com,2013-03-20 21:38:00,
2013-03-20 17:53:00,36.0,21.8,29.67,SE,135,3.2,-999.0,56,-99.99,,,0.27,Acu-Link.com,2013-03-20 21:53:00,
2013-03-20 18:09:00,35.4,21.3,29.67,West,270,4.2,-999.0,56,-99.99,,,0.28,Acu-Link.com,2013-03-20 22:09:00,
2013-03-20 18:24:00,34.9,21.2,29.68,West,270,3.2,-999.0,57,-99.99,,,0.28,Acu-Link.com,2013-03-20 22:24:00,
2013-03-20 18:40:00,34.3,21.9,29.69,East,90,0.0,-999.0,60,-99.99,,,0.28,Acu-Link.com,2013-03-20 22:40:00,
2013-03-20 18:55:00,33.4,21.4,29.70,West,270,0.0,-999.0,61,-99.99,,,0.28,Acu-Link.com,2013-03-20 22:55:00,
2013-03-20 19:10:00,32.5,20.6,29.70,West,270,2.2,-999.0,61,-99.99,,,0.29,Acu-Link.com,2013-03-20 23:10:00,
2013-03-20 19:25:00,32.4,21.2,29.70,West,270,1.1,-999.0,63,-99.99,,,0.29,Acu-Link.com,2013-03-20 23:25:00,
2013-03-20 19:41:00,31.6,20.8,29.71,West,270,2.2,-999.0,64,-99.99,,,0.29,Acu-Link.com,2013-03-20 23:41:00,
2013-03-20 20:26:00,28.9,21.4,29.73,South,180,0.0,-999.0,73,-99.99,,,0.29,Acu-Link.com,2013-03-21 00:26:00,
2013-03-20 20:42:00,28.2,21.3,29.73,West,270,0.0,-999.0,75,-99.99,,,0.29,Acu-Link.com,2013-03-21 00:42:00,
2013-03-20 20:57:00,27.9,21.3,29.72,West,270,1.7,-999.0,76,-99.99,,,0.29,Acu-Link.com,2013-03-21 00:57:00,
2013-03-20 21:12:00,28.6,21.7,29.72,West,270,1.7,-999.0,75,-99.99,,,0.29,Acu-Link.com,2013-03-21 01:12:00,
2013-03-20 21:27:00,28.2,21.6,29.72,West,270,0.0,-999.0,76,-99.99,,,0.29,Acu-Link.com,2013-03-21 01:27:00,
2013-03-20 21:43:00,27.1,21.2,29.73,West,270,0.0,-999.0,78,-99.99,,,0.29,Acu-Link.com,2013-03-21 01:43:00,
2013-03-20 21:58:00,26.4,20.5,29.74,South,180,0.0,-999.0,78,-99.99,,,0.29,Acu-Link.com,2013-03-21 01:58:00,
2013-03-20 22:13:00,25.7,21.0,29.73,West,270,0.0,-999.0,82,-99.99,,,0.29,Acu-Link.com,2013-03-21 02:13:00,
2013-03-20 22:28:00,25.3,20.9,29.74,West,270,0.0,-999.0,83,-99.99,,,0.29,Acu-Link.com,2013-03-21 02:28:00,
2013-03-20 22:44:00,24.6,20.5,29.75,SE,135,0.0,-999.0,84,-99.99,,,0.29,Acu-Link.com,2013-03-21 02:44:00,
2013-03-20 22:59:00,25.0,21.4,29.74,NNE,22,0.0,-999.0,86,-99.99,,,0.29,Acu-Link.com,2013-03-21 02:59:00,
2013-03-20 23:14:00,24.8,20.9,29.74,NNE,22,0.0,-999.0,85,-99.99,,,0.29,Acu-Link.com,2013-03-21 03:14:00,
2013-03-20 23:30:00,24.8,20.9,29.74,WNW,292,1.1,-999.0,85,-99.99,,,0.29,Acu-Link.com,2013-03-21 03:30:00,
2013-03-20 23:45:00,25.5,21.4,29.74,NE,45,2.2,-999.0,84,-99.99,,,0.29,Acu-Link.com,2013-03-21 03:45:00,